.
WxDataArchive / Data Records for 2015-01-21
2015-01-20 January 2015 2015-01-22

Data Records for Wednesday, 21 January 2015

Time	Temp	Chill	HIndex	Humid	Dewpt	 Wind 	HiWind	WindDir	Rain 	Barom
-----	----	-----	------	-----	-----	------	------	-------	-----	-----
00:00	30.7	30.7	30.7	91	28.4	1	3	90	0.00	29.992 
00:05	30.6	30.6	30.6	91	28.3	2	5	90	0.00	29.992 
00:10	30.6	30.6	30.6	91	28.3	1	5	90	0.00	29.992 
00:15	30.6	30.6	30.6	92	28.6	2	4	90	0.00	29.991 
00:20	30.6	30.6	30.6	91	28.3	1	4	90	0.00	29.991 
00:25	30.6	30.6	30.6	92	28.6	1	4	90	0.00	29.991 
00:30	30.6	30.6	30.6	92	28.6	1	3	90	0.00	29.991 
00:35	30.6	30.6	30.6	91	28.3	2	5	90	0.00	29.991 
00:40	30.6	30.6	30.6	91	28.3	2	5	90	0.00	29.991 
00:45	30.4	30.4	30.4	91	28.1	1	3	90	0.00	29.993 
00:50	30.4	30.4	30.4	91	28.1	1	5	90	0.00	29.993 
00:55	30.4	30.4	30.4	91	28.1	2	4	90	0.00	29.993 
01:00	30.4	30.4	30.4	91	28.1	1	4	90	0.00	29.991 
01:05	30.3	30.3	30.3	91	28.0	2	7	90	0.00	29.991 
01:10	30.3	30.3	30.3	91	28.0	1	3	90	0.00	29.991 
01:15	30.3	30.3	30.3	91	28.0	1	3	90	0.00	29.983 
01:20	30.3	30.3	30.3	92	28.3	2	5	90	0.00	29.983 
01:25	30.3	30.3	30.3	92	28.3	2	6	90	0.00	29.983 
01:30	30.3	30.3	30.3	92	28.3	2	5	90	0.00	29.976 
01:35	30.3	30.3	30.3	91	28.0	2	6	90	0.00	29.976 
01:40	30.1	30.1	30.1	91	27.8	2	6	90	0.00	29.976 
01:45	30.1	30.1	30.1	91	27.8	2	6	90	0.00	29.978 
01:50	30.1	30.1	30.1	91	27.8	2	6	90	0.00	29.978 
01:55	30.1	30.1	30.1	91	27.8	2	5	90	0.00	29.978 
02:00	30.1	30.1	30.1	91	27.8	2	6	90	0.00	29.980 
02:05	30.1	30.1	30.1	91	27.8	1	4	90	0.00	29.980 
02:10	30.0	30.0	30.0	91	27.7	2	5	90	0.00	29.980 
02:15	30.0	30.0	30.0	91	27.7	1	4	90	0.00	29.980 
02:20	30.0	30.0	30.0	91	27.7	1	4	90	0.00	29.980 
02:25	30.0	30.0	30.0	91	27.7	2	4	90	0.00	29.980 
02:30	29.8	29.8	29.8	91	27.5	1	3	90	0.00	29.982 
02:35	29.8	29.8	29.8	91	27.5	1	3	90	0.00	29.982 
02:40	29.8	29.8	29.8	91	27.5	2	5	90	0.00	29.982 
02:45	29.8	29.8	29.8	92	27.8	1	4	90	0.00	29.989 
02:50	29.7	29.7	29.7	91	27.4	2	4	90	0.00	29.989 
02:55	29.7	29.7	29.7	91	27.4	1	4	90	0.00	29.989 
03:00	29.7	29.7	29.7	91	27.4	1	4	90	0.00	29.986 
03:05	29.7	29.7	29.7	91	27.4	1	5	90	0.00	29.986 
03:10	29.7	29.7	29.7	91	27.4	2	5	90	0.00	29.986 
03:15	29.7	29.7	29.7	92	27.7	2	5	90	0.00	29.980 
03:20	29.5	29.5	29.5	92	27.5	2	5	90	0.00	29.980 
03:25	29.5	29.5	29.5	92	27.5	2	4	90	0.00	29.980 
03:30	29.5	29.5	29.5	92	27.5	1	3	90	0.00	29.982 
03:35	29.5	29.5	29.5	92	27.5	1	3	90	0.00	29.982 
03:40	29.5	29.5	29.5	92	27.5	2	4	90	0.00	29.982 
03:45	29.5	29.5	29.5	92	27.5	1	3	90	0.00	29.987 
03:50	29.4	29.4	29.4	92	27.4	1	4	90	0.00	29.987 
03:55	29.4	29.4	29.4	92	27.4	1	3	90	0.00	29.987 
04:00	29.4	29.4	29.4	92	27.4	1	4	90	0.00	29.986 
04:05	29.3	29.3	29.3	92	27.3	1	4	90	0.00	29.986 
04:10	29.3	29.3	29.3	92	27.3	0	4	90	0.00	29.986 
04:15	29.3	29.3	29.3	92	27.3	1	5	90	0.00	29.980 
04:20	29.3	29.3	29.3	92	27.3	0	2	90	0.00	29.980 
04:25	29.4	29.4	29.4	92	27.4	1	3	90	0.00	29.980 
04:30	29.4	29.4	29.4	92	27.4	0	1	90	0.00	29.983 
04:35	29.3	29.3	29.3	92	27.3	1	4	90	0.00	29.983 
04:40	29.3	29.3	29.3	92	27.3	0	4	90	0.00	29.983 
04:45	29.3	29.3	29.3	92	27.3	0	1	90	0.00	29.979 
04:50	29.3	29.3	29.3	92	27.3	0	2	90	0.00	29.979 
04:55	29.3	29.3	29.3	92	27.3	0	3	90	0.00	29.979 
05:00	29.1	29.1	29.1	92	27.1	1	4	90	0.00	29.978 
05:05	29.1	29.1	29.1	92	27.1	2	4	90	0.00	29.978 
05:10	29.0	29.0	29.0	93	27.2	1	4	90	0.00	29.978 
05:15	29.0	29.0	29.0	93	27.2	2	6	90	0.00	29.977 
05:20	29.0	29.0	29.0	93	27.2	1	4	90	0.00	29.977 
05:25	29.0	29.0	29.0	93	27.2	1	3	90	0.00	29.977 
05:30	28.8	28.8	28.8	93	27.0	1	4	90	0.00	29.978 
05:35	28.8	28.8	28.8	93	27.0	1	2	90	0.00	29.978 
05:40	29.0	29.0	29.0	93	27.2	0	2	90	0.00	29.978 
05:45	29.0	29.0	29.0	93	27.2	0	3	90	0.00	29.979 
05:50	29.0	29.0	29.0	93	27.2	0	3	90	0.00	29.979 
05:55	28.8	28.8	28.8	93	27.0	1	3	90	0.00	29.979 
06:00	28.8	28.8	28.8	93	27.0	0	2	90	0.00	29.979 
06:05	28.8	28.8	28.8	93	27.0	1	3	90	0.00	29.979 
06:10	28.7	28.7	28.7	93	26.9	1	4	90	0.00	29.979 
06:15	28.7	28.7	28.7	93	26.9	1	3	90	0.00	29.980 
06:20	28.7	28.7	28.7	93	26.9	0	2	90	0.00	29.980 
06:25	28.5	28.5	28.5	93	26.7	1	3	90	0.00	29.980 
06:30	28.5	28.5	28.5	93	26.7	1	3	90	0.00	29.982 
06:35	28.5	28.5	28.5	93	26.7	0	2	90	0.00	29.982 
06:40	28.4	28.4	28.4	93	26.6	0	2	90	0.00	29.982 
06:45	28.4	28.4	28.4	93	26.6	0	1	90	0.00	29.993 
06:50	28.4	28.4	28.4	93	26.6	0	1	90	0.00	29.993 
06:55	28.4	28.4	28.4	94	26.9	0	1	90	0.00	29.993 
07:00	28.5	28.5	28.5	94	27.0	0	1	90	0.00	29.992 
07:05	28.5	28.5	28.5	94	27.0	0	2	90	0.00	29.992 
07:10	28.5	28.5	28.5	94	27.0	0	1	90	0.00	29.992 
07:15	28.5	28.5	28.5	94	27.0	0	2	90	0.00	29.990 
07:20	28.5	28.5	28.5	94	27.0	0	2	90	0.00	29.990 
07:25	28.7	28.7	28.7	94	27.2	0	2	90	0.00	29.990 
07:30	28.7	28.7	28.7	94	27.2	1	3	90	0.00	29.986 
07:35	28.7	28.7	28.7	94	27.2	1	3	90	0.00	29.986 
07:40	28.5	28.5	28.5	94	27.0	2	3	90	0.00	29.986 
07:45	28.5	28.5	28.5	94	27.0	2	4	90	0.00	29.982 
07:50	28.5	28.5	28.5	94	27.0	0	3	90	0.00	29.982 
07:55	28.5	28.5	28.5	94	27.0	1	3	90	0.00	29.982 
08:00	28.5	28.5	28.5	94	27.0	0	4	90	0.00	29.993 
08:05	28.4	28.4	28.4	94	26.9	1	3	90	0.00	29.993 
08:10	28.4	28.4	28.4	94	26.9	0	1	90	0.00	29.993 
08:15	28.4	28.4	28.4	94	26.9	0	1	90	0.00	30.003 
08:20	28.4	28.4	28.4	94	26.9	0	1	90	0.00	30.003 
08:25	28.4	28.4	28.4	94	26.9	0	1	90	0.00	30.003 
08:30	28.4	28.4	28.4	94	26.9	0	1	90	0.00	30.010 
08:35	28.4	28.4	28.4	94	26.9	0	1	90	0.00	30.010 
08:40	28.4	28.4	28.4	94	26.9	0	0	---	0.00	30.010 
08:45	28.4	28.4	28.4	94	26.9	0	0	---	0.00	30.015 
08:50	28.5	28.5	28.5	94	27.0	0	0	---	0.00	30.015 
08:55	28.5	28.5	28.5	94	27.0	0	0	---	0.00	30.015 
09:00	28.5	28.5	28.5	94	27.0	0	0	---	0.00	30.015 
09:05	28.7	28.7	28.7	94	27.2	0	0	---	0.00	30.015 
09:10	28.8	28.8	28.8	94	27.3	0	0	---	0.00	30.015 
09:15	28.8	28.8	28.8	94	27.3	0	0	---	0.00	30.019 
09:20	29.0	29.0	29.0	94	27.5	0	1	90	0.00	30.019 
09:25	29.1	29.1	29.1	94	27.6	0	0	---	0.00	30.019 
09:30	29.1	29.1	29.1	94	27.6	0	0	---	0.00	30.014 
09:35	29.1	29.1	29.1	94	27.6	0	1	90	0.00	30.014 
09:40	29.1	29.1	29.1	94	27.6	0	2	90	0.00	30.014 
09:45	29.3	29.3	29.3	94	27.8	0	2	90	0.00	30.013 
09:50	29.3	29.3	29.3	94	27.8	0	1	90	0.00	30.013 
09:55	29.4	29.4	29.4	94	27.9	0	1	90	0.00	30.013 
10:00	29.5	29.5	29.5	94	28.0	0	1	90	0.00	30.016 
10:05	29.5	29.5	29.5	94	28.0	0	1	90	0.00	30.016 
10:10	29.5	29.5	29.5	94	28.0	0	1	90	0.00	30.016 
10:15	29.7	29.7	29.7	95	28.4	0	1	90	0.00	30.023 
10:20	29.8	29.8	29.8	95	28.5	0	1	90	0.00	30.023 
10:25	29.8	29.8	29.8	95	28.5	0	1	90	0.00	30.023 
10:30	30.0	30.0	30.0	95	28.7	0	1	90	0.00	30.025 
10:35	30.0	30.0	30.0	95	28.7	0	1	90	0.00	30.025 
10:40	30.1	30.1	30.1	95	28.8	0	1	90	0.00	30.025 
10:45	30.1	30.1	30.1	95	28.8	0	1	90	0.00	30.028 
10:50	30.1	30.1	30.1	95	28.8	0	0	---	0.00	30.028 
10:55	30.1	30.1	30.1	95	28.8	0	1	90	0.00	30.028 
11:00	30.1	30.1	30.1	95	28.8	0	0	---	0.00	30.035 
11:05	30.3	30.3	30.3	95	29.0	0	1	90	0.00	30.035 
11:10	30.3	30.3	30.3	95	29.0	0	1	90	0.00	30.035 
11:15	30.4	30.4	30.4	95	29.1	0	1	90	0.00	30.028 
11:20	30.6	30.6	30.6	95	29.3	0	0	---	0.00	30.028 
11:25	30.7	30.7	30.7	95	29.4	0	2	90	0.00	30.028 
11:30	30.9	30.9	30.9	95	29.6	0	1	90	0.00	30.024 
11:35	31.0	31.0	31.0	95	29.7	0	2	90	0.00	30.024 
11:40	31.0	31.0	31.0	95	29.7	0	1	90	0.00	30.024 
11:45	31.0	31.0	31.0	95	29.7	0	2	90	0.00	30.020 
11:50	31.0	31.0	31.0	95	29.7	0	2	90	0.00	30.020 
11:55	31.2	31.2	31.2	95	29.9	0	1	90	0.00	30.020 
12:00	31.5	31.5	31.5	95	30.2	0	0	---	0.00	30.024 
12:05	31.8	31.8	31.8	95	30.5	0	2	90	0.00	30.024 
12:10	31.9	31.9	31.9	95	30.6	0	1	90	0.00	30.024 
12:15	32.1	32.1	32.1	95	30.8	0	1	90	0.00	30.024 
12:20	32.1	32.1	32.1	95	30.8	0	2	90	0.00	30.024 
12:25	32.1	32.1	32.1	95	30.8	0	0	---	0.00	30.024 
12:30	32.2	32.2	32.2	95	30.9	0	1	90	0.00	30.020 
12:35	32.2	32.2	32.2	95	30.9	0	0	---	0.00	30.020 
12:40	32.4	32.4	32.4	95	31.1	0	0	---	0.00	30.020 
12:45	32.4	32.4	32.4	95	31.1	0	0	---	0.00	30.010 
12:50	32.5	32.5	32.5	95	31.2	0	0	---	0.00	30.010 
12:55	32.5	32.5	32.5	95	31.2	0	0	---	0.00	30.010 
13:00	32.5	32.5	32.5	95	31.2	0	0	---	0.00	30.011 
13:05	32.7	32.7	32.7	95	31.4	0	0	---	0.00	30.011 
13:10	32.7	32.7	32.7	95	31.4	0	0	---	0.00	30.011 
13:15	32.8	32.8	32.8	95	31.5	0	0	---	0.00	30.009 
13:20	32.8	32.8	32.8	95	31.5	0	0	---	0.00	30.009 
13:25	32.8	32.8	32.8	95	31.5	0	0	---	0.00	30.009 
13:30	32.9	32.9	32.9	96	31.9	0	0	---	0.00	30.009 
13:35	32.9	32.9	32.9	95	31.6	0	0	---	0.00	30.009 
13:40	33.1	33.1	33.1	96	32.1	0	0	---	0.00	30.009 
13:45	33.1	33.1	33.1	96	32.1	0	0	---	0.00	30.008 
13:50	33.1	33.1	33.1	95	31.8	0	0	---	0.00	30.008 
13:55	33.1	33.1	33.1	96	32.1	0	0	---	0.00	30.008 
14:00	33.2	33.2	33.2	96	32.2	0	0	---	0.00	30.008 
14:05	33.2	33.2	33.2	96	32.2	0	0	---	0.00	30.008 
14:10	33.2	33.2	33.2	96	32.2	0	0	---	0.00	30.008 
14:15	33.2	33.2	33.2	96	32.2	0	1	90	0.00	30.009 
14:20	33.4	33.4	33.4	96	32.4	0	0	---	0.00	30.009 
14:25	33.4	33.4	33.4	96	32.4	0	0	---	0.00	30.009 
14:30	33.4	33.4	33.4	96	32.4	0	1	90	0.00	30.010 
14:35	33.2	33.2	33.2	96	32.2	0	1	90	0.00	30.010 
14:40	33.1	33.1	33.1	96	32.1	0	0	---	0.00	30.010 
14:45	33.1	33.1	33.1	95	31.8	0	0	---	0.00	30.012 
14:50	33.2	33.2	33.2	96	32.2	0	0	---	0.00	30.012 
14:55	33.2	33.2	33.2	96	32.2	0	1	90	0.00	30.012 
15:00	33.4	33.4	33.4	96	32.4	0	0	---	0.00	30.016 
15:05	33.4	33.4	33.4	96	32.4	0	0	---	0.00	30.016 
15:10	33.5	33.5	33.5	96	32.5	0	0	---	0.00	30.016 
15:15	33.7	33.7	33.7	96	32.7	0	0	---	0.00	30.022 
15:20	33.8	33.8	33.8	96	32.8	0	0	---	0.00	30.022 
15:25	34.0	34.0	34.0	96	33.0	0	0	---	0.00	30.022 
15:30	34.1	34.1	34.1	96	33.1	0	0	---	0.00	30.029 
15:35	34.0	34.0	34.0	96	33.0	0	1	90	0.00	30.029 
15:40	34.0	34.0	34.0	96	33.0	0	0	---	0.00	30.029 
15:45	33.8	33.8	33.8	96	32.8	0	0	---	0.00	30.036 
15:50	34.0	34.0	34.0	96	33.0	0	1	90	0.00	30.036 
15:55	34.0	34.0	34.0	96	33.0	0	0	---	0.00	30.036 
16:00	34.0	34.0	34.0	96	33.0	0	0	---	0.00	30.040 
16:05	34.0	34.0	34.0	96	33.0	0	0	---	0.00	30.040 
16:10	34.1	34.1	34.1	96	33.1	0	2	90	0.00	30.040 
16:15	34.1	34.1	34.1	96	33.1	0	0	---	0.00	30.041 
16:20	34.1	34.1	34.1	96	33.1	0	0	---	0.00	30.041 
16:25	34.1	34.1	34.1	96	33.1	0	0	---	0.00	30.041 
16:30	34.1	34.1	34.1	96	33.1	0	1	90	0.00	30.042 
16:35	34.1	34.1	34.1	96	33.1	0	0	---	0.00	30.042 
16:40	34.1	34.1	34.1	95	32.8	0	0	---	0.00	30.042 
16:45	34.1	34.1	34.1	96	33.1	0	0	---	0.00	30.051 
16:50	34.1	34.1	34.1	96	33.1	0	0	---	0.00	30.051 
16:55	34.1	34.1	34.1	95	32.8	0	0	---	0.00	30.051 
17:00	34.1	34.1	34.1	95	32.8	0	0	---	0.00	30.057 
17:05	34.1	34.1	34.1	95	32.8	0	0	---	0.00	30.057 
17:10	34.1	34.1	34.1	95	32.8	0	0	---	0.00	30.057 
17:15	34.1	34.1	34.1	95	32.8	0	0	---	0.00	30.066 
17:20	34.1	34.1	34.1	95	32.8	0	0	---	0.00	30.066 
17:25	34.1	34.1	34.1	95	32.8	0	0	---	0.00	30.066 
17:30	34.1	34.1	34.1	95	32.8	0	0	---	0.00	30.072 
17:35	34.1	34.1	34.1	95	32.8	0	0	---	0.00	30.072 
17:40	34.1	34.1	34.1	95	32.8	0	0	---	0.00	30.072 
17:45	34.1	34.1	34.1	95	32.8	0	1	90	0.00	30.078 
17:50	34.1	34.1	34.1	95	32.8	0	1	90	0.00	30.078 
17:55	34.1	34.1	34.1	95	32.8	0	1	90	0.00	30.078 
18:00	34.1	34.1	34.1	95	32.8	0	0	---	0.00	30.087 
18:05	34.0	34.0	34.0	95	32.7	0	0	---	0.00	30.087 
18:10	34.0	34.0	34.0	95	32.7	0	0	---	0.00	30.087 
18:15	33.8	33.8	33.8	95	32.5	0	2	90	0.00	30.091 
18:20	33.8	33.8	33.8	95	32.5	0	1	90	0.00	30.091 
18:25	33.8	33.8	33.8	95	32.5	0	1	90	0.00	30.091 
18:30	33.8	33.8	33.8	95	32.5	0	1	90	0.00	30.097 
18:35	34.0	34.0	34.0	94	32.5	0	0	---	0.00	30.097 
18:40	33.8	33.8	33.8	94	32.3	0	1	90	0.00	30.097 
18:45	34.0	34.0	34.0	94	32.5	0	1	90	0.00	30.102 
18:50	34.0	34.0	34.0	94	32.5	0	1	90	0.00	30.102 
18:55	34.0	34.0	34.0	94	32.5	0	0	---	0.00	30.102 
19:00	34.0	34.0	34.0	94	32.5	0	0	---	0.00	30.106 
19:05	34.0	34.0	34.0	93	32.2	0	0	---	0.00	30.106 
19:10	34.0	34.0	34.0	93	32.2	0	2	90	0.00	30.106 
19:15	34.0	34.0	34.0	93	32.2	0	1	90	0.00	30.113 
19:20	34.1	34.1	34.1	92	32.0	0	1	90	0.00	30.113 
19:25	34.1	34.1	34.1	92	32.0	1	3	90	0.00	30.113 
19:30	34.3	34.3	34.3	92	32.2	0	2	90	0.00	30.118 
19:35	34.3	34.3	34.3	91	32.0	0	2	90	0.00	30.118 
19:40	34.3	34.3	34.3	91	32.0	0	1	90	0.00	30.118 
19:45	34.3	34.3	34.3	90	31.7	1	4	90	0.00	30.121 
19:50	34.3	34.3	34.3	90	31.7	0	1	90	0.00	30.121 
19:55	34.3	34.3	34.3	89	31.4	0	2	90	0.00	30.121 
20:00	34.3	34.3	34.3	89	31.4	1	2	90	0.00	30.126 
20:05	34.1	34.1	34.1	88	30.9	0	3	90	0.00	30.126 
20:10	34.1	34.1	34.1	88	30.9	1	3	90	0.00	30.126 
20:15	34.1	34.1	34.1	88	30.9	1	3	90	0.00	30.134 
20:20	34.1	34.1	34.1	87	30.6	1	3	90	0.00	30.134 
20:25	34.1	34.1	34.1	87	30.6	1	4	90	0.00	30.134 
20:30	34.1	34.1	34.1	86	30.4	1	3	292	0.00	30.136 
20:35	34.0	34.0	34.0	86	30.3	1	3	292	0.00	30.136 
20:40	33.8	33.8	33.8	86	30.1	1	3	292	0.00	30.136 
20:45	33.8	33.8	33.8	86	30.1	2	4	270	0.00	30.137 
20:50	33.7	33.7	33.7	86	30.0	1	2	270	0.00	30.137 
20:55	33.7	33.7	33.7	86	30.0	1	3	270	0.00	30.137 
21:00	33.5	33.5	33.5	87	30.1	1	2	270	0.00	30.141 
21:05	33.5	33.5	33.5	87	30.1	1	3	270	0.00	30.141 
21:10	33.4	33.4	33.4	87	30.0	0	2	270	0.00	30.141 
21:15	33.2	33.2	33.2	88	30.0	1	2	270	0.00	30.150 
21:20	33.2	33.2	33.2	88	30.0	0	2	270	0.00	30.150 
21:25	33.1	33.1	33.1	88	29.9	1	3	270	0.00	30.150 
21:30	33.1	33.1	33.1	88	29.9	0	2	270	0.00	30.154 
21:35	33.1	33.1	33.1	89	30.2	0	1	270	0.00	30.154 
21:40	32.9	32.9	32.9	89	30.0	1	4	270	0.00	30.154 
21:45	32.9	32.9	32.9	89	30.0	1	2	270	0.00	30.164 
21:50	32.9	32.9	32.9	89	30.0	1	2	270	0.00	30.164 
21:55	32.9	32.9	32.9	90	30.3	1	2	270	0.00	30.164 
22:00	32.9	32.9	32.9	90	30.3	0	2	270	0.00	30.167 
22:05	32.8	32.8	32.8	90	30.2	0	2	270	0.00	30.167 
22:10	32.8	32.8	32.8	90	30.2	0	1	270	0.00	30.167 
22:15	32.8	32.8	32.8	91	30.5	0	1	270	0.00	30.172 
22:20	32.7	32.7	32.7	91	30.4	0	1	270	0.00	30.172 
22:25	32.7	32.7	32.7	91	30.4	0	2	270	0.00	30.172 
22:30	32.5	32.5	32.5	91	30.2	1	2	270	0.00	30.177 
22:35	32.5	32.5	32.5	91	30.2	0	2	270	0.00	30.177 
22:40	32.5	32.5	32.5	91	30.2	0	2	270	0.00	30.177 
22:45	32.5	32.5	32.5	91	30.2	1	4	270	0.00	30.182 
22:50	32.4	32.4	32.4	92	30.3	1	3	270	0.00	30.182 
22:55	32.4	32.4	32.4	92	30.3	1	2	270	0.00	30.182 
23:00	32.4	32.4	32.4	92	30.3	0	1	270	0.00	30.185 
23:05	32.1	32.1	32.1	91	29.8	2	5	270	0.00	30.185 
23:10	31.6	31.6	31.6	91	29.3	2	4	270	0.00	30.185 
23:15	31.3	31.3	31.3	91	29.0	1	4	292	0.00	30.192 
23:20	31.3	31.3	31.3	91	29.0	1	2	292	0.00	30.192 
23:25	31.2	31.2	31.2	91	28.9	1	3	292	0.00	30.192 
23:30	31.2	31.2	31.2	91	28.9	1	4	248	0.00	30.198 
23:35	31.2	31.2	31.2	91	28.9	1	3	248	0.00	30.198 
23:40	31.2	31.2	31.2	91	28.9	1	2	248	0.00	30.198 
23:45	31.2	31.2	31.2	91	28.9	1	2	248	0.00	30.200 
23:50	31.0	31.0	31.0	91	28.7	1	3	248	0.00	30.200 
23:55	31.0	31.0	31.0	91	28.7	1	4	315	0.00	30.200 

CoCoRaHS
IN-AL-39
A2 Web Hosting
Creative Commons License
GoDaddy
search engine by freefind advanced

loaded 2018-11-17 18:18:15 • last modified 2010-11-18 10:43:29
Privacy PolicyDisclaimer
• wx.awcolley.com is powered by PmWiki v.2002016 •
• all content (unless otherwise noted) © 2018 A W Colley